Flight Track Log - Related Links

Times and Time Zones

All times are in EDT time to prevent confusion due to time zone crossing. See the SWA158 flight status page for this flight to view local times or setup timezone preferences in your user account.

Time Position Orientation Groundspeed Altitude Reporting Facility
EDT Latitude Longitude Course Direction KTS MPH feet Rate Location/Type
Tue 02:30:37 PM 41.7833 -87.8000 79° East 203 234 2,700  Level Chicago TRACON
Tue 02:31:43 PM 41.8167 -87.7333 56° Northeast 250 288 3,000 1,048 Climbing Chicago TRACON
Tue 02:32:43 PM 41.8000 -87.6500 105° East 254 292 4,900 1,333 Climbing Chicago TRACON
Tue 02:33:13 PM 41.8042 -87.6025 83° East 260 299 5,000 65 Climbing Chicago Center
Tue 02:34:15 PM 41.8139 -87.5047 82° East 264 304 5,000 97 Level Chicago Center
Tue 02:35:17 PM 41.8214 -87.4058 84° East 266 306 5,200 1,645 Climbing Chicago Center
Tue 02:36:00 PM 41.9098 -86.8659 79° East  Level Estimated
Tue 02:36:19 PM 41.8028 -87.3014 103° East 290 334 8,400  Level Chicago Center
Tue 02:37:21 PM 41.7839 -87.1869 102° East 312 359 11,200 2,855 Climbing Chicago Center
Tue 02:38:23 PM 41.7614 -87.0511 102° East 374 430 14,300 3,387 Climbing Chicago Center
Tue 02:39:25 PM 41.7642 -86.8758 89° East 397 457 18,200 3,312 Climbing Chicago Center
Tue 02:40:28 PM 41.7653 -86.7267 89° East 401 461 21,200 2,710 Climbing Chicago Center
Tue 02:41:29 PM 41.7658 -86.5781 90° East 413 475 23,800 2,439 Climbing Chicago Center
Tue 02:42:31 PM 41.7672 -86.4219 89° East 419 482 26,200 2,468 Climbing Chicago Center
Tue 02:43:33 PM 41.7772 -86.2650 85° East 425 489 28,900 1,790 Climbing Chicago Center
Tue 02:44:35 PM 41.8103 -86.0753 77° East 439 505 29,900 1,584 Climbing Chicago Center
Tue 02:45:38 PM 41.8378 -85.9100 77° East 452 520 32,200 1,824 Climbing Chicago Center
Tue 02:46:40 PM 41.8667 -85.7456 77° East 451 519 33,700 1,597 Climbing Chicago Center
Tue 02:47:42 PM 41.8944 -85.5792 77° East 451 519 35,500 1,645 Climbing Chicago Center
Tue 02:48:44 PM 41.9219 -85.4142 77° East 448 516 37,100 1,297 Climbing Chicago Center
Tue 02:49:33 PM 41.9472 -85.2769 76° East 444 511 37,900 991 Climbing Cleveland Center
Tue 02:50:33 PM 41.9542 -85.1069 87° East 444 511 38,900 550 Climbing Cleveland Center
Tue 02:51:33 PM 41.9544 -84.9394 90° East 444 511 39,000 50 Climbing Cleveland Center
Tue 02:52:33 PM 41.9522 -84.7689 91° East 450 518 39,000  Level Cleveland Center
Tue 02:53:33 PM 41.9519 -84.6042 90° East 450 518 39,000  Level Cleveland Center
Tue 02:54:33 PM 41.9475 -84.4306 92° East 450 518 39,000  Level Cleveland Center
Tue 02:55:33 PM 41.9411 -84.2431 93° East 455 524 39,000  Level Cleveland Center
Tue 02:56:33 PM 41.9383 -84.0697 91° East 461 531 39,000  Level Cleveland Center
Tue 02:57:33 PM 41.9369 -83.8994 91° East 461 531 39,000  Level Cleveland Center
Tue 02:58:33 PM 41.9356 -83.7319 91° East 455 524 39,000  Level Cleveland Center
Tue 02:59:33 PM 41.9336 -83.5644 91° East 450 518 39,000  Level Cleveland Center
Tue 03:00:33 PM 41.9547 -83.3950 80° East 450 518 39,000  Level Cleveland Center
Tue 03:01:33 PM 41.9753 -83.2311 80° East 450 518 39,000  Level Cleveland Center
Tue 03:02:33 PM 41.9936 -83.0669 81° East 443 510 39,000  Level Cleveland Center
Tue 03:03:33 PM 42.0133 -82.9222 80° East 438 504 39,000  Level Cleveland Center
Tue 03:04:33 PM 42.0331 -82.7608 81° East 438 504 39,000  Level Cleveland Center
Tue 03:05:33 PM 42.0486 -82.5992 83° East 438 504 39,000  Level Cleveland Center
Tue 03:06:33 PM 42.0700 -82.4350 80° East 443 510 39,000 -100 Level Cleveland Center
Tue 03:07:33 PM 42.0956 -82.2733 78° East 424 488 38,800 -500 Descending Cleveland Center
Tue 03:08:33 PM 42.1414 -82.1150 69° East 431 496 38,000 -550 Descending Cleveland Center
Tue 03:09:33 PM 42.1869 -81.9786 66° East 404 465 37,700 -500 Descending Cleveland Center
Tue 03:10:33 PM 42.2325 -81.8339 67° East 409 471 37,000 -350 Descending Cleveland Center
Tue 03:11:33 PM 42.2736 -81.6858 69° East 415 478 37,000  Level Cleveland Center
Tue 03:12:33 PM 42.2875 -81.5261 83° East 415 478 37,000  Level Cleveland Center
Tue 03:13:33 PM 42.3033 -81.3636 82° East 425 489 37,000  Level Cleveland Center
Tue 03:14:33 PM 42.3167 -81.2036 84° East 425 489 37,000  Level Cleveland Center
Tue 03:15:33 PM 42.3278 -81.0633 84° East 425 489 37,000  Level Cleveland Center
Tue 03:16:33 PM 42.3431 -80.9033 83° East 425 489 37,000  Level Cleveland Center
Tue 03:17:33 PM 42.3581 -80.7433 83° East 425 489 37,000  Level Cleveland Center
Tue 03:18:33 PM 42.3728 -80.5858 83° East 425 489 37,000  Level Cleveland Center
Tue 03:19:33 PM 42.3850 -80.4258 84° East 425 489 37,000  Level Cleveland Center
Tue 03:20:33 PM 42.3992 -80.2514 84° East 425 489 37,000  Level Cleveland Center
Tue 03:21:33 PM 42.4133 -80.0911 83° East 425 489 37,000  Level Cleveland Center
Tue 03:22:33 PM 42.4250 -79.9306 84° East 425 489 37,000  Level Cleveland Center
Tue 03:23:33 PM 42.4386 -79.7731 83° East 425 489 37,000  Level Cleveland Center
Tue 03:24:33 PM 42.4500 -79.6153 84° East 425 489 37,000  Level Cleveland Center
Tue 03:25:33 PM 42.4653 -79.4603 82° East 425 489 37,000  Level Cleveland Center
Tue 03:26:33 PM 42.4761 -79.2994 85° East 425 489 37,000  Level Cleveland Center
Tue 03:27:33 PM 42.4867 -79.1417 85° East 425 489 37,000  Level Cleveland Center
Tue 03:28:33 PM 42.4992 -78.9781 84° East 425 489 37,000  Level Cleveland Center
Tue 03:29:33 PM 42.5092 -78.8172 85° East 425 489 37,000  Level Cleveland Center
Tue 03:30:33 PM 42.5214 -78.6619 84° East 425 489 37,000  Level Cleveland Center
Tue 03:31:33 PM 42.5311 -78.4981 85° East 425 489 37,000  Level Cleveland Center
Tue 03:32:33 PM 42.5428 -78.3400 84° East 425 489 37,000  Level Cleveland Center
Tue 03:33:33 PM 42.5519 -78.1761 86° East 425 489 37,000  Level Cleveland Center
Tue 03:34:33 PM 42.5628 -78.0122 85° East 425 489 37,000  Level Cleveland Center
Tue 03:35:33 PM 42.5717 -77.8511 86° East 425 489 37,000  Level Cleveland Center
Tue 03:36:33 PM 42.5825 -77.6928 85° East 425 489 37,000 -616 Level Cleveland Center
Tue 03:38:38 PM 42.6000 -77.3686 86° East 436 502 35,100 -649 Descending Boston Center
Tue 03:39:38 PM 42.6108 -77.2086 85° East 430 495 35,000 -50 Descending Boston Center
Tue 03:40:38 PM 42.6194 -77.0514 86° East 423 487 35,000  Level Boston Center
Tue 03:41:38 PM 42.6281 -76.8881 86° East 423 487 35,000  Level Boston Center
Tue 03:42:38 PM 42.6364 -76.7250 86° East 423 487 35,000  Level Boston Center
Tue 03:43:38 PM 42.6447 -76.5589 86° East 428 493 35,000  Level Boston Center
Tue 03:44:38 PM 42.6525 -76.3956 86° East 433 498 35,000  Level Boston Center
Tue 03:45:38 PM 42.6603 -76.2294 86° East 440 506 35,000  Level Boston Center
Tue 03:46:38 PM 42.6678 -76.0606 86° East 440 506 35,000  Level Boston Center
Tue 03:47:38 PM 42.6753 -75.8942 86° East 440 506 35,000  Level Boston Center
Tue 03:48:38 PM 42.6842 -75.7336 86° East 440 506 35,000  Level Boston Center
Tue 03:49:38 PM 42.6889 -75.5672 88° East 440 506 35,000  Level Boston Center
Tue 03:50:38 PM 42.6958 -75.3839 87° East 440 506 35,000  Level Boston Center
Tue 03:51:38 PM 42.7019 -75.2203 87° East 440 506 35,000  Level Boston Center
Tue 03:52:38 PM 42.7081 -75.0539 87° East 440 506 35,000 -250 Level Boston Center
Tue 03:53:38 PM 42.7158 -74.8844 86° East 440 506 34,500 -1,250 Descending Boston Center
Tue 03:54:38 PM 42.7214 -74.7181 87° East 440 506 32,500 -2,100 Descending Boston Center
Tue 03:55:38 PM 42.7242 -74.5853 88° East 440 506 30,300 -1,950 Descending Boston Center
Tue 03:56:38 PM 42.7317 -74.3933 87° East 440 506 28,600 -1,350 Descending Boston Center
Tue 03:57:38 PM 42.7344 -74.2294 89° East 435 501 27,600 -950 Descending Boston Center
Tue 03:58:38 PM 42.7389 -74.0683 88° East 435 501 26,700 -950 Descending Boston Center
Tue 03:59:38 PM 42.7433 -73.9017 88° East 435 501 25,700 -1,000 Descending Boston Center
Tue 04:00:38 PM 42.7514 -73.7350 86° East 435 501 24,700 -900 Descending Boston Center
Tue 04:01:38 PM 42.7575 -73.5739 87° East 435 501 23,900 -850 Descending Boston Center
Tue 04:02:38 PM 42.7631 -73.4128 87° East 435 501 23,000 -1,000 Descending Boston Center
Tue 04:03:38 PM 42.7686 -73.2461 87° East 435 501 21,900 -1,000 Descending Boston Center
Tue 04:04:38 PM 42.7736 -73.0878 87° East 435 501 21,000 -450 Descending Boston Center
Tue 04:05:38 PM 42.7767 -72.9322 88° East 430 495 21,000 -50 Level Boston Center
Tue 04:06:38 PM 42.7833 -72.7767 87° East 430 495 20,900 -1,500 Descending Boston Center
Tue 04:07:38 PM 42.7878 -72.6156 88° East 410 472 18,000 -2,800 Descending Boston Center
Tue 04:08:38 PM 42.7900 -72.4683 89° East 395 455 15,300 -2,750 Descending Boston Center
Tue 04:09:38 PM 42.7942 -72.3183 88° East 388 447 12,500 -2,550 Descending Boston Center
Tue 04:10:38 PM 42.8022 -72.1769 86° East 377 434 10,200 -1,250 Descending Boston Center
Tue 04:11:38 PM 42.8125 -72.0722 82° East 338 389 10,000 -800 Descending Boston Center
Tue 04:12:38 PM 42.8244 -71.9589 82° East 285 328 8,600 -1,250 Descending Boston Center
Tue 04:13:38 PM 42.8617 -71.8822 56° Northeast 262 302 7,500 -1,300 Descending Boston Center
Tue 04:14:38 PM 42.9028 -71.7911 58° Northeast 257 296 6,000 -1,400 Descending Boston Center
Tue 04:15:38 PM 42.9400 -71.7142 57° Northeast 257 296 4,700 -1,250 Descending Boston Center
Tue 04:16:38 PM 42.9831 -71.6228 57° Northeast 257 296 3,500 -700 Descending Boston Center
Tue 04:17:38 PM 43.0139 -71.5597 56° Northeast 242 278 3,300 -700 Descending Boston Center
Tue 04:18:38 PM 43.0197 -71.4917 83° East 167 192 2,100 -1,050 Descending Boston Center
Tue 04:19:38 PM 42.9861 -71.4694 154° Southeast 125 144 1,200 -850 Descending Boston Center
Tue 04:20:38 PM 42.9483 -71.4417 152° Southeast 131 151 400 -450 Descending Boston Center
Tue 04:21:38 PM 42.9189 -71.4222 154° Southeast 131 151 300 9,300 Descending Boston Center
Tue 04:22:38 PM 42.8875 -71.4000 153° Southeast 131 151 19,000 9,350 Climbing Boston Center
Tue 04:23:38 PM 42.8561 -71.3808 156° South 131 151 19,000  Level Boston Center
Tue 04:24:38 PM 42.8247 -71.3586 153° Southeast 131 151 19,000  Level Boston Center
Tue 04:26:00 PM 42.9167 -71.4333 316° Northwest  Level FlightAware Approximate
Tue 04:33:00 PM 42.9328 -71.4358 316° Northwest  Level Estimated
Tue 04:34:00 PM 42.9328 -71.4358 316° Northwest  Level Estimated
Tue 04:35:00 PM 42.9328 -71.4358 316° Northwest  Level Estimated
Tue 04:36:00 PM 42.9328 -71.4358 316° Northwest  Level Estimated
Tue 04:37:00 PM 42.9328 -71.4358 316° Northwest  Level Estimated

Login

Don't have an account? Register now (free) for customized features, flight alerts, and more!